Airfield :
LOGIN :

Register | Disclaimer

   EN    FR    IT 

 










Legend :    VFR   Marginal VFR   IFR   Intensive IFR   Very Intensive IFR
Visi :
Ceiling :
>= 8 km
>= 3000ft
5 to 8 km
1000 to 3000 ft
1500m to 5 km
500 to 1000 ft
800 to 1500m
200 to 500 ft
< 800m
< 200 ft
Symbols :   Thunderstorms  Fog  Heavy snow  Heavy precipitations  Wind > 20 kt
SIGMETs :     Misc.  Thunderstorms  Icing  Turbulence  Mountain Waves  Volcanic Ashes







- Airport Elevation : 157 ft
- IATA code : LIL
- Download approach charts


LFQQ - Lille Lesquin

CURRENT METAR :
  • 191000Z AUTO 23010KT 9999 BKN013 08/05 Q1021 BECMG NSC

EXPIRED METARs :
  • 190930Z AUTO 23010KT 9999 SCT011 08/06 Q1021 NOSIG
  • 190900Z AUTO 22010KT 9999 FEW011 07/06 Q1020 NOSIG
  • 190830Z AUTO 20007KT CAVOK 07/05 Q1020 BECMG 26010KT
  • 190800Z AUTO 20005KT CAVOK 05/04 Q1020 BECMG 26010KT
  • 190730Z AUTO 21007KT CAVOK 04/04 Q1020 NOSIG

TAF AMD TAF LFQQ
Valid from the 19 at 10:00 until the 20 at 12:00 UTC


191010Z 1910/2012 26010KT 8000 NSC
TEMPO 1910/1913 BKN013
BECMG 1920/1921 20008KT
BECMG 2001/2003 4000 BR
PROB40
TEMPO 2007/2010 0500 FG VV///
BECMG 2010/2012 8000 NSW
ATIS : +33 3 20 16 19 54
No reported NOTAMs for that airfield.
1 SIGMET reported for the Paris FIR (LFFF) :
 
Severe turbulence
LFFF SIGMET 2 VALID 190800/191200 LFPW
LFFF PARIS FIR/UIR SEV TURB FCST WI N4715 E00130 - N4715 W00015 - N4800 W00015 - N4900 E00100 - N4830 E00230 - N4715 E00130 FL200/300 MOV E 10KT WKN=



MET'MAP, your aeronautical weather chart ! - Copyright ORBIFLY December 2007 - Disclaimer

ORBIFLY MET'MAP TEAM :

Programming & Development : Alexandra Zaïnal
Concept & Development : Baudouin d'Aumeries
Co-Development & Prog : Marc-Olivier Méhu
Technical & hardware support : Manuel Goepfert

Contact : metmap@orbifly.com




SOURCES & CREDITS :

   NOAA